createdAt,value
2023-01-13T00:00:03.190Z,5.13
2023-01-13T00:05:15.843Z,4.30
2023-01-13T00:10:18.967Z,5.87
2023-01-13T00:15:21.776Z,5.37
2023-01-13T00:20:25.977Z,5.43
2023-01-13T00:25:28.871Z,4.97
2023-01-13T00:30:31.685Z,5.37
2023-01-13T00:35:36.060Z,4.53
2023-01-13T00:40:38.866Z,5.03
2023-01-13T00:45:41.738Z,5.53
2023-01-13T00:50:54.913Z,6.53
2023-01-13T00:56:01.313Z,5.43
2023-01-13T01:01:05.393Z,6.00
2023-01-13T01:06:12.356Z,6.40
2023-01-13T01:11:16.524Z,5.80
2023-01-13T01:16:21.150Z,5.47
2023-01-13T01:21:26.434Z,7.13
2023-01-13T01:26:30.395Z,4.73
2023-01-13T01:31:34.271Z,5.13
2023-01-13T01:36:38.451Z,4.33
2023-01-13T01:42:01.275Z,4.20
2023-01-13T01:47:04.261Z,5.23
2023-01-13T01:52:11.733Z,5.20
2023-01-13T01:57:18.272Z,4.40
2023-01-13T02:02:21.248Z,6.17
2023-01-13T02:07:27.711Z,6.77
2023-01-13T02:12:32.042Z,4.53
2023-01-13T02:17:50.633Z,4.90
2023-01-13T02:23:52.175Z,4.37
2023-01-13T02:29:25.924Z,6.07
2023-01-13T02:34:35.356Z,5.70
2023-01-13T02:39:41.641Z,5.30
2023-01-13T02:44:48.029Z,5.37
2023-01-13T02:49:56.291Z,5.00
2023-01-13T02:55:03.942Z,6.23
2023-01-13T03:00:09.116Z,4.67
2023-01-13T03:05:15.881Z,4.57
2023-01-13T03:10:26.901Z,5.80
2023-01-13T03:15:40.397Z,4.03
2023-01-13T03:20:50.910Z,4.60
2023-01-13T03:25:57.517Z,5.53
2023-01-13T03:31:03.865Z,5.07
2023-01-13T03:36:10.502Z,6.93
2023-01-13T03:41:17.516Z,3.80
2023-01-13T03:46:25.075Z,4.40
2023-01-13T03:51:30.501Z,5.53
2023-01-13T03:56:38.325Z,3.60
2023-01-13T04:01:45.998Z,3.80
2023-01-13T04:06:56.286Z,5.20
2023-01-13T04:12:02.637Z,4.17
2023-01-13T04:17:05.531Z,3.83
2023-01-13T04:22:11.054Z,4.30
2023-01-13T04:27:13.978Z,3.80
2023-01-13T04:32:16.849Z,4.00
2023-01-13T04:37:21.103Z,3.87
2023-01-13T04:42:24.007Z,3.63
2023-01-13T04:47:26.805Z,4.80
2023-01-13T04:52:31.025Z,3.60
2023-01-13T04:57:34.931Z,4.00
2023-01-13T05:02:37.868Z,4.07
2023-01-13T05:07:42.150Z,3.23
2023-01-13T05:13:07.708Z,3.03
2023-01-13T05:18:14.094Z,2.83
2023-01-13T05:23:35.568Z,3.10
2023-01-13T05:28:38.506Z,3.30
2023-01-13T05:33:41.411Z,3.63
2023-01-13T05:38:45.694Z,4.63
2023-01-13T05:43:48.668Z,3.57
2023-01-13T05:48:51.528Z,3.90
2023-01-13T05:53:55.758Z,3.30
2023-01-13T05:58:58.611Z,5.43
2023-01-13T06:04:01.585Z,4.00
2023-01-13T06:09:06.480Z,3.30
2023-01-13T06:14:09.612Z,4.67
2023-01-13T06:19:13.191Z,3.13
2023-01-13T06:24:17.449Z,4.73
2023-01-13T06:29:20.355Z,3.63
2023-01-13T06:34:23.192Z,3.97
2023-01-13T06:39:31.012Z,3.70
2023-01-13T06:44:33.953Z,4.57
2023-01-13T06:49:36.739Z,5.43
2023-01-13T06:54:40.994Z,4.50
2023-01-13T06:59:43.825Z,5.13
2023-01-13T07:04:46.778Z,5.13
2023-01-13T07:09:51.047Z,3.83
2023-01-13T07:15:11.327Z,4.07
2023-01-13T07:20:15.473Z,3.27
2023-01-13T07:25:19.777Z,6.13
2023-01-13T07:30:25.762Z,4.17
2023-01-13T07:35:31.516Z,4.40
2023-01-13T07:40:35.818Z,3.57
2023-01-13T07:45:38.671Z,3.90
2023-01-13T07:50:44.084Z,4.40
2023-01-13T07:55:51.418Z,5.60
2023-01-13T08:00:55.007Z,3.73
2023-01-13T08:05:57.909Z,3.97
2023-01-13T08:11:02.682Z,4.33
2023-01-13T08:16:09.955Z,4.27
2023-01-13T08:21:15.155Z,4.67
2023-01-13T08:26:19.781Z,4.07
2023-01-13T08:31:22.698Z,4.60
2023-01-13T08:36:26.081Z,3.77
2023-01-13T08:41:47.579Z,3.07
2023-01-13T08:46:50.572Z,3.20
2023-01-13T08:51:54.155Z,4.87
2023-01-13T08:57:00.998Z,3.47
2023-01-13T09:02:04.395Z,3.77
2023-01-13T09:07:07.476Z,3.73
2023-01-13T09:12:30.464Z,3.33
2023-01-13T09:17:33.260Z,2.87
2023-01-13T09:22:39.149Z,3.77
2023-01-13T09:27:43.427Z,3.83
2023-01-13T09:32:46.294Z,3.60
2023-01-13T09:37:49.147Z,3.73
2023-01-13T09:43:14.160Z,3.07
2023-01-13T09:48:22.169Z,3.37
2023-01-13T09:53:31.962Z,3.90
2023-01-13T09:58:36.179Z,4.77
2023-01-13T10:03:41.275Z,3.63
2023-01-13T10:08:48.899Z,2.60
2023-01-13T10:14:00.575Z,3.80
2023-01-13T10:19:07.294Z,2.40
2023-01-13T10:24:16.697Z,3.93
2023-01-13T10:29:27.640Z,3.43
2023-01-13T10:34:31.136Z,3.37
2023-01-13T10:39:41.107Z,2.53
2023-01-13T10:44:55.859Z,1.70
2023-01-13T10:50:09.337Z,2.30
2023-01-13T10:55:29.188Z,2.40
2023-01-13T11:00:40.928Z,2.47
2023-01-13T11:05:50.132Z,2.57
2023-01-13T11:11:00.647Z,3.50
2023-01-13T11:16:08.927Z,3.50
2023-01-13T11:21:18.882Z,2.27
2023-01-13T11:26:27.808Z,2.40
2023-01-13T11:31:37.963Z,3.47
2023-01-13T11:36:46.073Z,2.60
2023-01-13T11:42:11.486Z,4.37
2023-01-13T11:47:17.216Z,1.80
2023-01-13T11:52:23.181Z,2.30
2023-01-13T11:57:52.732Z,1.90
2023-01-13T12:03:12.689Z,1.80
2023-01-13T12:08:19.971Z,2.27
2023-01-13T12:13:34.139Z,2.40
2023-01-13T12:19:14.825Z,3.50
2023-01-13T12:24:21.227Z,1.90
2023-01-13T12:29:29.554Z,2.47
2023-01-13T12:34:44.739Z,2.33
2023-01-13T12:39:59.497Z,2.33
2023-01-13T12:45:24.631Z,2.03
2023-01-13T12:50:46.617Z,2.57
2023-01-13T12:55:53.183Z,2.20
2023-01-13T13:00:59.910Z,2.63
2023-01-13T13:06:17.465Z,3.57
2023-01-13T13:11:41.863Z,2.17
2023-01-13T13:16:50.846Z,4.07
2023-01-13T13:22:27.244Z,1.73
2023-01-13T13:27:40.601Z,3.00
2023-01-13T13:33:03.903Z,2.33
2023-01-13T13:38:39.583Z,2.57
2023-01-13T13:44:01.191Z,1.87
2023-01-13T13:49:06.534Z,1.70
2023-01-13T13:54:14.561Z,3.10
2023-01-13T13:59:20.079Z,2.90
2023-01-13T14:04:25.865Z,2.40
2023-01-13T14:09:41.196Z,1.80
2023-01-13T14:14:44.161Z,2.73
2023-01-13T14:19:54.068Z,3.30
2023-01-13T14:25:04.116Z,2.60
2023-01-13T14:30:08.945Z,1.67
2023-01-13T14:35:17.153Z,2.10
2023-01-13T14:40:46.963Z,1.90
2023-01-13T14:45:58.039Z,2.53
2023-01-13T14:51:02.402Z,2.20
2023-01-13T14:56:39.769Z,2.17
2023-01-13T15:01:42.755Z,3.08
2023-01-13T15:06:48.073Z,2.20
2023-01-13T15:11:54.273Z,2.03
2023-01-13T15:16:57.222Z,2.07
2023-01-13T15:22:00.123Z,2.87
2023-01-13T15:27:15.504Z,2.47
2023-01-13T15:32:20.330Z,2.10
2023-01-13T15:37:25.511Z,3.83
2023-01-13T15:42:47.302Z,2.13
2023-01-13T15:47:50.429Z,3.57
2023-01-13T15:52:53.327Z,2.90
2023-01-13T15:57:59.696Z,2.40
2023-01-13T16:03:02.611Z,2.17
2023-01-13T16:08:05.896Z,2.07
2023-01-13T16:13:10.142Z,1.37
2023-01-13T16:18:18.068Z,1.90
2023-01-13T16:23:21.536Z,1.80
2023-01-13T16:28:28.230Z,2.57
2023-01-13T16:33:31.070Z,2.67
2023-01-13T16:38:33.946Z,2.60
2023-01-13T16:43:38.732Z,2.10
2023-01-13T16:48:41.659Z,3.23
2023-01-13T16:53:44.911Z,2.97
2023-01-13T16:58:49.152Z,2.40
2023-01-13T17:03:52.581Z,2.23
2023-01-13T17:08:57.594Z,3.07
2023-01-13T17:14:07.277Z,2.00
2023-01-13T17:19:24.257Z,2.70
2023-01-13T17:24:29.317Z,2.30
2023-01-13T17:29:34.166Z,2.40
2023-01-13T17:34:36.953Z,2.33
2023-01-13T17:39:39.919Z,2.10
2023-01-13T17:44:44.168Z,2.80
2023-01-13T17:49:53.571Z,1.97
2023-01-13T17:54:56.609Z,1.70
2023-01-13T18:00:00.741Z,1.67
2023-01-13T18:05:03.542Z,2.73
2023-01-13T18:10:07.402Z,2.20
2023-01-13T18:15:11.933Z,1.57
2023-01-13T18:20:32.942Z,2.07
2023-01-13T18:25:53.400Z,2.50
2023-01-13T18:30:57.705Z,2.37
2023-01-13T18:36:00.531Z,4.27
2023-01-13T18:41:25.898Z,2.37
2023-01-13T18:46:30.068Z,2.50
2023-01-13T18:51:33.018Z,2.20
2023-01-13T18:56:36.031Z,1.30
2023-01-13T19:01:40.358Z,1.43
2023-01-13T19:06:47.999Z,2.17
2023-01-13T19:11:51.469Z,3.17
2023-01-13T19:16:55.614Z,2.50
2023-01-13T19:22:01.221Z,2.73
2023-01-13T19:27:04.242Z,3.00
2023-01-13T19:32:08.519Z,3.07
2023-01-13T19:37:12.136Z,1.93
2023-01-13T19:42:32.447Z,2.43
2023-01-13T19:47:38.409Z,2.03
2023-01-13T19:52:41.455Z,2.07
2023-01-13T19:57:44.462Z,2.40
2023-01-13T20:02:49.527Z,2.30
2023-01-13T20:07:52.876Z,2.07
2023-01-13T20:12:55.713Z,2.30
2023-01-13T20:18:00.525Z,2.87
2023-01-13T20:23:03.302Z,1.93
2023-01-13T20:28:07.138Z,1.70
2023-01-13T20:33:11.413Z,2.20
2023-01-13T20:38:16.200Z,2.83
2023-01-13T20:43:18.971Z,2.53
2023-01-13T20:48:23.182Z,2.43
2023-01-13T20:53:25.981Z,3.07
2023-01-13T20:58:28.792Z,3.77
2023-01-13T21:03:33.034Z,2.57
2023-01-13T21:08:35.966Z,2.80
2023-01-13T21:13:56.550Z,4.37
2023-01-13T21:19:10.821Z,2.27
2023-01-13T21:24:14.069Z,3.27
2023-01-13T21:29:16.893Z,2.17
2023-01-13T21:34:21.220Z,1.93
2023-01-13T21:39:24.132Z,4.47
2023-01-13T21:44:46.700Z,2.37
2023-01-13T21:49:51.049Z,2.87
2023-01-13T21:55:11.131Z,2.67
2023-01-13T22:00:14.959Z,2.33
2023-01-13T22:05:21.002Z,2.97
2023-01-13T22:10:25.747Z,3.43
2023-01-13T22:15:30.555Z,2.43
2023-01-13T22:20:34.644Z,5.37
2023-01-13T22:25:37.410Z,3.60
2023-01-13T22:30:40.381Z,4.23
2023-01-13T22:35:44.520Z,2.53
2023-01-13T22:40:47.253Z,1.97
2023-01-13T22:45:57.732Z,2.83
2023-01-13T22:51:06.678Z,2.83
2023-01-13T22:56:12.352Z,3.40
2023-01-13T23:01:16.995Z,2.53
2023-01-13T23:06:22.836Z,2.40
2023-01-13T23:11:28.535Z,4.80
2023-01-13T23:16:33.295Z,2.83
2023-01-13T23:21:38.474Z,4.27
2023-01-13T23:26:41.361Z,3.43
2023-01-13T23:31:44.189Z,2.00
2023-01-13T23:36:48.378Z,5.27
2023-01-13T23:41:51.166Z,2.50
2023-01-13T23:46:54.042Z,3.83
2023-01-13T23:51:58.317Z,2.87
2023-01-13T23:57:01.121Z,3.17
